Time;durP1;ratioP1;P1;durP2;ratioP2;P2;SDS_P1;SDS_P2;PMS_P1;PMS_P2;Temp;Humidity;BMP_temperature;BMP_pressure;BME280_temperature;BME280_humidity;BME280_pressure;Samples;Min_cycle;Max_cycle;Signal;HPM_P1;HPM_P2
2021/04/21 00:00:32;;;;;;;14.05;11.63;;;;;;;7.84;74.56;99818.59;1719906;80;22400;-69
2021/04/21 00:02:59;;;;;;;14.55;11.48;;;;;;;7.82;74.53;99819.38;1719075;80;21699;-69
2021/04/21 00:05:27;;;;;;;14.33;11.43;;;;;;;7.79;74.62;99818.02;1753438;80;21196;-69
2021/04/21 00:07:57;;;;;;;16.60;12.33;;;;;;;7.79;74.60;99819.35;1749165;80;21251;-68
2021/04/21 00:10:27;;;;;;;17.20;12.10;;;;;;;7.76;74.66;99826.51;1750758;80;21184;-69
2021/04/21 00:12:55;;;;;;;14.93;10.88;;;;;;;7.73;74.77;99825.19;1755924;80;21246;-68
2021/04/21 00:15:24;;;;;;;14.78;11.63;;;;;;;7.71;74.94;99833.93;1756808;80;21200;-68
2021/04/21 00:17:58;;;;;;;15.60;11.38;;;;;;;7.68;75.04;99829.12;1753737;80;21212;-69
2021/04/21 00:20:26;;;;;;;15.43;11.63;;;;;;;7.68;75.05;99825.67;1747948;80;21176;-69
2021/04/21 00:22:57;;;;;;;15.00;11.73;;;;;;;7.68;75.10;99822.48;1718299;81;21684;-68
2021/04/21 00:25:26;;;;;;;14.28;11.75;;;;;;;7.69;75.12;99827.27;1737075;80;21281;-68
2021/04/21 00:27:54;;;;;;;14.78;11.15;;;;;;;7.68;75.17;99822.48;1753627;80;21265;-69
2021/04/21 00:30:28;;;;;;;14.03;11.00;;;;;;;7.69;75.18;99829.92;1714057;80;21211;-68
2021/04/21 00:32:56;;;;;;;14.73;11.40;;;;;;;7.65;75.14;99829.63;1730023;80;21251;-68
2021/04/21 00:35:28;;;;;;;12.05;9.98;;;;;;;7.67;75.12;99838.70;1714015;82;21225;-70
2021/04/21 00:38:00;;;;;;;14.28;10.93;;;;;;;7.67;75.12;99838.16;1739378;81;21201;-69
2021/04/21 00:40:46;;;;;;;17.87;11.65;;;;;;;7.66;75.27;99845.84;1729273;82;21170;-68
2021/04/21 00:43:31;;;;;;;13.22;10.32;;;;;;;7.66;75.24;99841.06;1733278;80;21575;-67
2021/04/21 00:46:35;;;;;;;14.07;9.83;;;;;;;7.66;75.18;99840.53;1752602;80;21580;-66
2021/04/21 00:49:14;;;;;;;13.78;10.20;;;;;;;7.64;75.07;99837.34;1740344;80;21237;-67
2021/04/21 00:51:51;;;;;;;13.53;10.38;;;;;;;7.63;74.97;99845.55;1735901;80;21387;-67
2021/04/21 00:54:53;;;;;;;13.45;10.95;;;;;;;7.63;74.91;99850.87;1742842;80;21196;-67
2021/04/21 00:58:04;;;;;;;12.90;10.63;;;;;;;7.62;74.92;99846.09;1742574;80;21184;-66
2021/04/21 01:00:36;;;;;;;14.25;10.35;;;;;;;7.63;74.95;99845.55;1735719;81;21148;-68
2021/04/21 01:03:14;;;;;;;13.55;10.32;;;;;;;7.63;74.97;99846.88;1739210;80;21244;-67
2021/04/21 01:05:48;;;;;;;15.28;10.78;;;;;;;7.63;75.03;99838.91;1738862;80;22205;-68
2021/04/21 01:08:20;;;;;;;12.25;10.45;;;;;;;7.66;75.04;99847.17;1734708;81;21656;-68
2021/04/21 01:11:00;;;;;;;11.68;9.55;;;;;;;7.67;75.00;99851.45;1749909;80;21198;-67
2021/04/21 01:13:39;;;;;;;14.23;10.20;;;;;;;7.68;74.96;99847.73;1736549;80;21204;-68
2021/04/21 01:16:09;;;;;;;12.60;9.38;;;;;;;7.70;74.89;99850.95;1745730;80;21197;-67
2021/04/21 01:18:39;;;;;;;12.28;9.53;;;;;;;7.72;74.72;99844.83;1737769;80;21204;-67
2021/04/21 01:21:36;;;;;;;13.80;10.10;;;;;;;7.71;74.41;99856.52;1742640;81;21228;-69
2021/04/21 01:24:36;;;;;;;12.20;9.43;;;;;;;7.71;74.10;99846.42;1738027;80;21201;-67
2021/04/21 01:27:09;;;;;;;12.35;9.45;;;;;;;7.69;73.81;99844.01;1741100;80;21145;-68
2021/04/21 01:29:44;;;;;;;12.70;9.45;;;;;;;7.65;73.56;99850.89;1749513;80;21184;-67
2021/04/21 01:32:24;;;;;;;12.58;9.40;;;;;;;7.62;73.48;99851.40;1740155;80;21629;-67
2021/04/21 01:34:54;;;;;;;14.98;8.83;;;;;;;7.59;73.44;99854.56;1747330;80;21200;-66
2021/04/21 01:37:29;;;;;;;11.55;9.33;;;;;;;7.57;73.45;99847.39;1742036;82;21584;-67
2021/04/21 01:40:17;;;;;;;11.83;9.38;;;;;;;7.57;73.45;99855.37;1724872;82;21201;-67
2021/04/21 01:42:50;;;;;;;10.05;8.15;;;;;;;7.55;73.37;99856.67;1735383;80;21153;-68
2021/04/21 01:45:23;;;;;;;11.25;8.60;;;;;;;7.52;73.36;99861.42;1740607;80;21791;-66
2021/04/21 01:47:51;;;;;;;14.05;9.95;;;;;;;7.49;73.39;99862.45;1730336;82;21766;-67
2021/04/21 01:50:19;;;;;;;13.45;9.00;;;;;;;7.45;73.45;99855.52;1733948;80;21149;-68
2021/04/21 01:53:11;;;;;;;15.20;9.48;;;;;;;7.44;73.52;99857.13;1739311;80;21189;-67
2021/04/21 01:56:03;;;;;;;13.08;10.03;;;;;;;7.41;73.57;99861.61;1738701;80;21260;-67
2021/04/21 01:58:53;;;;;;;12.60;9.45;;;;;;;7.36;73.63;99861.02;1750302;80;21251;-68
2021/04/21 02:01:45;;;;;;;13.10;9.80;;;;;;;7.34;73.73;99861.81;1740158;80;21192;-67
2021/04/21 02:04:37;;;;;;;14.65;9.73;;;;;;;7.31;73.83;99868.16;1736807;80;21197;-67
2021/04/21 02:07:39;;;;;;;14.35;10.20;;;;;;;7.27;73.87;99866.01;1749586;80;21140;-67
2021/04/21 02:10:13;;;;;;;15.38;9.83;;;;;;;7.24;73.96;99870.49;1713064;82;21662;-67
2021/04/21 02:12:59;;;;;;;12.13;10.25;;;;;;;7.23;74.05;99870.73;1690082;84;21327;-66
2021/04/21 02:15:37;;;;;;;15.05;10.20;;;;;;;7.24;74.13;99870.49;1732667;80;21216;-66
2021/04/21 02:18:34;;;;;;;14.03;10.20;;;;;;;7.24;74.13;99870.49;1731663;80;21578;-68
2021/04/21 02:21:56;;;;;;;11.15;9.43;;;;;;;7.25;74.17;99865.98;1739850;80;21240;-68
2021/04/21 02:25:06;;;;;;;12.53;9.95;;;;;;;7.24;74.28;99870.49;1735222;80;21152;-68
2021/04/21 02:27:55;;;;;;;12.80;8.95;;;;;;;7.21;74.42;99874.98;1740906;80;21356;-67
2021/04/21 02:30:47;;;;;;;12.60;9.70;;;;;;;7.20;74.58;99875.22;1737446;80;21200;-67
2021/04/21 02:34:00;;;;;;;12.68;9.50;;;;;;;7.18;74.76;99877.34;1739522;80;21228;-66
2021/04/21 02:36:58;;;;;;;10.93;9.08;;;;;;;7.14;74.94;99880.20;1745338;80;21208;-66
2021/04/21 02:39:37;;;;;;;12.10;9.40;;;;;;;7.05;75.16;99876.67;1736440;81;21192;-67
2021/04/21 02:42:22;;;;;;;13.43;10.03;;;;;;;6.98;75.41;99878.73;1725947;80;22659;-68
2021/04/21 02:45:29;;;;;;;11.45;9.48;;;;;;;6.93;75.60;99885.30;1747140;80;21514;-67
2021/04/21 02:48:19;;;;;;;12.03;9.55;;;;;;;6.89;75.83;99890.04;1738140;80;21189;-67
2021/04/21 02:50:52;;;;;;;12.20;9.08;;;;;;;6.83;75.99;99886.52;1700775;82;21557;-67
2021/04/21 02:53:28;;;;;;;11.88;9.08;;;;;;;6.81;76.19;99882.80;1744506;80;21176;-67
2021/04/21 02:56:27;;;;;;;12.80;9.23;;;;;;;6.77;76.33;99894.94;1738309;80;22500;-66
2021/04/21 02:59:04;;;;;;;13.00;8.60;;;;;;;6.74;76.40;99898.61;1733744;81;21213;-68
2021/04/21 03:02:06;;;;;;;12.73;9.43;;;;;;;6.68;76.57;99898.27;1722182;80;21181;-67
2021/04/21 03:04:52;;;;;;;10.68;9.25;;;;;;;6.57;76.94;99897.35;1734718;80;21196;-68
2021/04/21 03:07:41;;;;;;;12.93;9.73;;;;;;;6.57;76.94;99897.35;1741862;80;21168;-67
2021/04/21 03:10:16;;;;;;;10.65;8.33;;;;;;;6.53;77.18;99905.53;1740959;81;21427;-67
2021/04/21 03:13:18;;;;;;;11.80;9.70;;;;;;;6.50;77.38;99906.02;1737629;81;21165;-67
2021/04/21 03:15:49;;;;;;;12.30;9.18;;;;;;;6.49;77.64;99907.08;1614281;86;21280;-67
2021/04/21 03:18:22;;;;;;;12.82;8.38;;;;;;;6.47;77.91;99915.80;1715505;81;21160;-67
2021/04/21 03:21:16;;;;;;;10.78;8.50;;;;;;;6.47;78.16;99907.84;1740762;80;21247;-66
2021/04/21 03:23:45;;;;;;;12.00;7.95;;;;;;;6.46;78.26;99918.18;1738432;80;22654;-68
2021/04/21 03:26:13;;;;;;;11.75;9.13;;;;;;;6.47;78.42;99917.13;1726580;81;21209;-70
2021/04/21 03:28:41;;;;;;;10.80;8.38;;;;;;;6.48;78.56;99925.35;1740964;80;21201;-67
2021/04/21 03:31:10;;;;;;;11.97;8.80;;;;;;;6.49;78.56;99915.04;1731115;80;21221;-67
2021/04/21 03:33:43;;;;;;;11.33;8.75;;;;;;;6.53;78.59;99925.43;1738494;80;21085;-68
2021/04/21 03:36:15;;;;;;;11.68;8.33;;;;;;;6.55;78.59;99929.45;1723347;82;21379;-68
2021/04/21 03:38:45;;;;;;;10.80;8.53;;;;;;;6.55;78.50;99925.47;1717220;81;21503;-67
2021/04/21 03:41:14;;;;;;;12.43;8.68;;;;;;;6.55;78.50;99941.92;1743090;80;21260;-67
2021/04/21 03:43:42;;;;;;;13.90;8.95;;;;;;;6.52;78.59;99948.52;1735012;80;21234;-68
2021/04/21 03:46:11;;;;;;;11.48;7.87;;;;;;;6.53;78.58;99940.03;1740331;80;21144;-67
2021/04/21 03:48:40;;;;;;;11.05;8.18;;;;;;;6.52;78.53;99939.23;1742912;81;21539;-68
2021/04/21 03:51:09;;;;;;;11.83;8.73;;;;;;;6.57;78.57;99938.48;1742361;81;21213;-67
2021/04/21 03:53:38;;;;;;;10.53;8.28;;;;;;;6.61;78.54;99947.55;1736814;81;21199;-68
2021/04/21 03:56:11;;;;;;;11.33;8.85;;;;;;;6.65;78.46;99939.40;1726156;80;21161;-68
2021/04/21 03:58:39;;;;;;;12.37;8.65;;;;;;;6.66;78.42;99941.52;1743555;80;21148;-67
2021/04/21 04:01:15;;;;;;;10.55;7.92;;;;;;;6.68;78.44;99943.39;1753942;80;22403;-66
2021/04/21 04:03:59;;;;;;;13.10;9.03;;;;;;;6.72;78.31;99939.22;1748984;79;22868;-73
2021/04/21 04:06:41;;;;;;;11.10;8.65;;;;;;;6.67;78.34;99954.53;1707957;83;21564;-71
2021/04/21 04:09:11;;;;;;;11.03;8.40;;;;;;;6.67;78.38;99958.52;1713605;83;21249;-72
2021/04/21 04:11:50;;;;;;;11.28;8.80;;;;;;;6.66;78.37;99958.77;1700938;82;21152;-73
2021/04/21 04:14:33;;;;;;;10.93;8.28;;;;;;;6.67;78.34;99963.02;1709818;82;21658;-73
2021/04/21 04:17:04;;;;;;;11.90;8.13;;;;;;;6.65;78.36;99963.81;1714150;83;21664;-71
2021/04/21 04:19:36;;;;;;;12.90;9.00;;;;;;;6.64;78.40;99972.27;1715776;82;21208;-72
2021/04/21 04:22:09;;;;;;;12.37;8.48;;;;;;;6.61;78.40;99974.61;1691843;83;21357;-71
2021/04/21 04:24:50;;;;;;;10.82;8.00;;;;;;;6.61;78.47;99984.70;1687057;83;21152;-71
2021/04/21 04:27:21;;;;;;;9.50;7.58;;;;;;;6.64;78.53;99982.08;1680810;85;21101;-71
2021/04/21 04:29:50;;;;;;;10.08;8.40;;;;;;;6.69;78.51;99986.15;1674550;85;21582;-72
2021/04/21 04:32:20;;;;;;;10.05;8.00;;;;;;;6.73;78.43;99986.73;1672676;84;21622;-70
2021/04/21 04:34:52;;;;;;;9.48;7.10;;;;;;;6.73;78.32;99989.91;1712758;82;21185;-71
2021/04/21 04:37:21;;;;;;;11.53;8.15;;;;;;;6.71;78.28;99987.52;1709382;83;21192;-71
2021/04/21 04:39:49;;;;;;;9.53;7.75;;;;;;;6.69;78.20;99990.93;1707131;83;21555;-71
2021/04/21 04:42:17;;;;;;;10.85;7.95;;;;;;;6.72;78.18;99990.44;1710746;82;21136;-73
2021/04/21 04:44:48;;;;;;;13.30;8.23;;;;;;;6.78;78.18;99992.12;1712250;82;21144;-73
2021/04/21 04:47:32;;;;;;;10.68;8.40;;;;;;;6.86;78.10;99996.72;1714972;82;22646;-75
2021/04/21 04:50:12;;;;;;;10.82;8.33;;;;;;;6.86;77.93;99996.19;1710628;82;21271;-74
2021/04/21 04:52:44;;;;;;;11.78;8.95;;;;;;;6.88;77.90;100006.55;1712570;82;21076;-74
2021/04/21 04:55:15;;;;;;;11.35;8.33;;;;;;;6.90;77.78;100003.13;1712212;82;21709;-72
2021/04/21 04:57:47;;;;;;;10.13;8.03;;;;;;;6.97;77.77;100007.20;1700612;82;21160;-74
2021/04/21 05:00:21;;;;;;;10.55;8.58;;;;;;;7.01;77.62;100004.36;1707554;83;22635;-73
2021/04/21 05:02:57;;;;;;;10.18;7.40;;;;;;;7.04;77.50;100008.34;1710244;82;21098;-74
2021/04/21 05:05:27;;;;;;;10.40;8.40;;;;;;;7.09;77.38;100005.77;1692494;83;21251;-73
2021/04/21 05:08:04;;;;;;;11.33;8.28;;;;;;;7.14;77.25;100005.02;1696694;83;21150;-73
2021/04/21 05:11:01;;;;;;;11.15;8.78;;;;;;;7.20;77.16;100005.36;1705169;82;21199;-74
2021/04/21 05:13:40;;;;;;;12.15;8.88;;;;;;;7.26;77.00;100005.70;1689451;82;21549;-73
2021/04/21 05:16:38;;;;;;;12.35;8.63;;;;;;;7.35;76.82;100010.86;1697861;82;21156;-75
2021/04/21 05:19:35;;;;;;;10.95;8.50;;;;;;;7.39;76.54;100009.83;1617086;83;21600;-72
2021/04/21 05:22:41;;;;;;;9.70;7.80;;;;;;;7.45;76.42;100011.49;1702819;84;21648;-72
2021/04/21 05:25:52;;;;;;;13.65;8.38;;;;;;;7.56;76.23;100002.56;1701814;82;21196;-72
2021/04/21 05:29:05;;;;;;;11.28;8.75;;;;;;;7.59;75.80;100011.90;1689233;84;21145;-73
2021/04/21 05:32:12;;;;;;;10.35;7.60;;;;;;;7.62;75.64;100008.21;1708996;82;21141;-72
2021/04/21 05:35:19;;;;;;;10.13;7.75;;;;;;;7.68;75.44;100003.23;1695550;82;21208;-71
2021/04/21 05:38:28;;;;;;;10.88;8.30;;;;;;;7.80;75.05;100017.70;1696244;84;21185;-72
2021/04/21 05:41:47;;;;;;;11.97;9.30;;;;;;;7.92;74.82;100025.52;1699759;84;21505;-75
2021/04/21 05:44:54;;;;;;;12.47;8.75;;;;;;;8.07;74.38;100031.51;1653007;82;21162;-75
2021/04/21 05:47:45;;;;;;;10.88;8.83;;;;;;;8.17;73.83;100047.02;1698942;83;21161;-73
2021/04/21 05:50:52;;;;;;;11.73;8.63;;;;;;;8.31;73.60;100042.61;1701079;84;21197;-73
2021/04/21 05:54:10;;;;;;;12.13;9.15;;;;;;;8.51;73.16;100050.77;1702422;84;21482;-73
2021/04/21 05:57:09;;;;;;;11.57;9.38;;;;;;;8.62;72.47;100052.45;1691438;82;21498;-73
2021/04/21 06:00:11;;;;;;;12.15;9.00;;;;;;;8.72;71.96;100059.71;1702163;84;22160;-73
2021/04/21 06:02:39;;;;;;;10.75;8.98;;;;;;;8.87;71.66;100059.78;1695481;82;21133;-72
2021/04/21 06:05:12;;;;;;;9.35;8.08;;;;;;;9.00;71.04;100055.86;1695203;84;21844;-73
2021/04/21 06:07:41;;;;;;;13.10;9.55;;;;;;;9.11;70.69;100057.54;1697532;82;21140;-72
2021/04/21 06:10:29;;;;;;;13.03;9.75;;;;;;;9.19;70.44;100062.09;1692315;82;21498;-73
2021/04/21 06:13:00;;;;;;;11.88;9.10;;;;;;;9.28;69.91;100054.68;1691110;84;23156;-73
2021/04/21 06:15:39;;;;;;;12.05;9.23;;;;;;;9.33;69.46;100056.02;1692126;84;21145;-72
2021/04/21 06:18:09;;;;;;;11.83;9.28;;;;;;;9.42;69.20;100057.66;1699102;83;21137;-70
2021/04/21 06:20:42;;;;;;;12.75;9.48;;;;;;;9.50;68.70;100064.34;1699490;84;21157;-73
2021/04/21 06:23:24;;;;;;;12.90;8.85;;;;;;;9.55;68.43;100057.17;1698634;82;21160;-74
2021/04/21 06:26:03;;;;;;;10.43;8.60;;;;;;;9.62;68.08;100059.59;1698786;82;21203;-70
2021/04/21 06:28:32;;;;;;;11.83;9.50;;;;;;;9.62;67.35;100060.38;1699834;82;21137;-71
2021/04/21 06:31:09;;;;;;;14.63;9.55;;;;;;;9.55;67.46;100061.16;1701596;84;21054;-71
2021/04/21 06:33:44;;;;;;;16.17;9.90;;;;;;;9.55;67.09;100061.16;1697149;82;21144;-69
2021/04/21 06:36:14;;;;;;;12.00;9.03;;;;;;;9.54;67.16;100058.23;1697971;82;21132;-72
2021/04/21 06:38:43;;;;;;;9.65;8.33;;;;;;;9.55;66.83;100067.83;1694768;82;21231;-72
2021/04/21 06:41:12;;;;;;;12.98;9.85;;;;;;;9.54;66.27;100062.23;1698411;82;21609;-72
2021/04/21 06:43:41;;;;;;;15.48;10.65;;;;;;;9.52;66.44;100063.02;1677630;84;21082;-71
2021/04/21 06:46:10;;;;;;;12.40;9.75;;;;;;;9.53;66.25;100065.15;1700913;82;21209;-70
2021/04/21 06:48:40;;;;;;;12.40;9.78;;;;;;;9.60;66.12;100067.83;1656961;84;21058;-70
2021/04/21 06:51:12;;;;;;;12.07;9.95;;;;;;;9.66;65.99;100075.86;1692317;82;21268;-71
2021/04/21 06:53:42;;;;;;;14.50;9.23;;;;;;;9.74;65.80;100078.00;1703071;82;21228;-71
2021/04/21 06:56:12;;;;;;;13.78;9.33;;;;;;;9.78;65.77;100076.44;1702429;84;21133;-71
2021/04/21 06:58:40;;;;;;;11.22;9.08;;;;;;;9.84;65.49;100077.52;1693923;82;21711;-70
2021/04/21 07:01:24;;;;;;;10.88;8.80;;;;;;;9.89;64.60;100087.92;1690521;84;21196;-70
2021/04/21 07:03:49;;;;;;;11.87;9.00;;;;;;;9.81;64.32;100083.38;1702419;84;21203;-71
2021/04/21 07:06:17;;;;;;;12.10;8.68;;;;;;;9.81;64.39;100085.24;1701257;82;21811;-72
2021/04/21 07:08:49;;;;;;;9.55;8.08;;;;;;;9.89;64.37;100090.59;1699574;82;21241;-72
2021/04/21 07:11:22;;;;;;;12.25;8.40;;;;;;;9.93;64.09;100089.78;1700711;82;21204;-70
2021/04/21 07:13:51;;;;;;;10.78;8.28;;;;;;;9.96;64.35;100077.25;1675117;82;21697;-71
2021/04/21 07:16:28;;;;;;;10.27;7.63;;;;;;;9.98;63.77;100081.80;1690119;82;21297;-70
2021/04/21 07:19:01;;;;;;;9.63;8.27;;;;;;;10.00;63.92;100079.69;1698700;82;22051;-70
2021/04/21 07:21:29;;;;;;;8.97;7.80;;;;;;;10.03;63.84;100082.33;1691412;82;21386;-71
2021/04/21 07:24:01;;;;;;;9.50;8.28;;;;;;;10.06;63.79;100079.94;1702392;82;21479;-72
2021/04/21 07:26:37;;;;;;;9.80;8.20;;;;;;;9.99;63.68;100087.94;1701880;84;21130;-72
2021/04/21 07:29:07;;;;;;;9.87;7.80;;;;;;;9.93;64.17;100096.45;1696194;82;21435;-72
2021/04/21 07:31:36;;;;;;;9.90;7.60;;;;;;;10.01;64.42;100094.63;1701734;84;21452;-72
2021/04/21 07:34:13;;;;;;;8.40;7.33;;;;;;;10.08;63.90;100101.83;1694144;82;21459;-70
2021/04/21 07:36:48;;;;;;;9.03;7.03;;;;;;;10.08;63.39;100105.83;1696300;84;21648;-74
2021/04/21 07:39:16;;;;;;;10.43;7.33;;;;;;;10.04;63.32;100101.30;1699462;82;21521;-73
2021/04/21 07:41:49;;;;;;;9.20;7.73;;;;;;;10.05;63.43;100102.36;1692339;82;21470;-73
2021/04/21 07:44:38;;;;;;;7.93;7.00;;;;;;;10.16;63.56;100105.83;1692613;82;21536;-73
2021/04/21 07:47:13;;;;;;;8.60;6.40;;;;;;;10.30;63.22;100106.97;1690149;84;21478;-72
2021/04/21 07:49:55;;;;;;;9.63;6.83;;;;;;;10.42;61.62;100108.56;1698738;82;21405;-75
2021/04/21 07:52:29;;;;;;;10.70;6.80;;;;;;;10.44;60.86;100107.23;1701059;82;21380;-71
2021/04/21 07:55:20;;;;;;;7.70;6.33;;;;;;;10.42;60.66;100114.70;1698506;82;22366;-72
2021/04/21 07:58:04;;;;;;;7.60;6.00;;;;;;;10.54;60.97;100111.78;1696614;82;21436;-71
2021/04/21 08:00:34;;;;;;;8.30;6.03;;;;;;;10.75;60.38;100115.23;1696498;82;21296;-73
2021/04/21 08:03:03;;;;;;;7.50;5.37;;;;;;;10.98;59.71;100116.53;1695736;82;21524;-73
2021/04/21 08:05:32;;;;;;;7.47;5.30;;;;;;;11.15;58.82;100122.37;1695433;82;21478;-73
2021/04/21 08:08:02;;;;;;;9.07;6.00;;;;;;;11.25;57.98;100122.88;1695526;84;22153;-73
2021/04/21 08:10:34;;;;;;;8.17;6.13;;;;;;;11.31;57.58;100122.34;1694785;82;22225;-72
2021/04/21 08:13:03;;;;;;;7.40;5.67;;;;;;;11.34;57.43;100123.13;1697733;82;21451;-73
2021/04/21 08:15:39;;;;;;;7.90;5.70;;;;;;;11.41;57.32;100121.77;1698409;84;21918;-73
2021/04/21 08:18:11;;;;;;;7.90;5.53;;;;;;;11.49;57.12;100124.43;1693885;84;21878;-72
2021/04/21 08:20:46;;;;;;;7.13;5.23;;;;;;;11.53;56.55;100125.48;1698500;82;21690;-72
2021/04/21 08:23:18;;;;;;;8.10;5.73;;;;;;;11.60;55.94;100121.17;1635439;85;22055;-73
2021/04/21 08:25:47;;;;;;;7.40;5.33;;;;;;;11.62;55.40;100117.70;1646257;85;21543;-72
2021/04/21 08:28:16;;;;;;;7.00;5.63;;;;;;;11.65;55.83;100119.28;1691080;83;21197;-72
2021/04/21 08:30:54;;;;;;;7.03;5.40;;;;;;;11.64;55.70;100121.67;1697424;82;21440;-71
2021/04/21 08:33:23;;;;;;;9.13;5.80;;;;;;;11.67;55.99;100121.67;1698214;83;21533;-72
2021/04/21 08:35:51;;;;;;;7.50;5.80;;;;;;;11.81;55.82;100122.66;1698058;82;21518;-74
2021/04/21 08:38:26;;;;;;;7.10;5.13;;;;;;;12.03;55.10;100121.52;1693662;84;21525;-74
2021/04/21 08:40:54;;;;;;;7.97;5.30;;;;;;;12.18;54.62;100120.89;1745043;80;21986;-74
2021/04/21 08:43:24;;;;;;;7.77;5.63;;;;;;;12.16;53.32;100112.87;1689583;83;21604;-73
2021/04/21 08:45:54;;;;;;;6.20;4.90;;;;;;;12.10;53.53;100109.95;1724164;81;21457;-71
2021/04/21 08:48:22;;;;;;;6.17;4.80;;;;;;;12.12;52.39;100115.84;1698621;81;21573;-72
2021/04/21 08:50:50;;;;;;;6.13;4.73;;;;;;;12.07;51.42;100115.86;1722893;81;21417;-71
2021/04/21 08:53:20;;;;;;;5.53;4.57;;;;;;;11.93;51.98;100114.34;1703432;81;21510;-70
2021/04/21 08:55:49;;;;;;;6.43;5.47;;;;;;;11.67;52.08;100129.70;1721486;82;21520;-72
2021/04/21 08:58:22;;;;;;;6.10;4.80;;;;;;;11.67;52.08;100129.70;1715032;81;22778;-72
2021/04/21 09:00:51;;;;;;;5.63;4.20;;;;;;;11.42;54.09;100125.27;1699488;81;21475;-72
2021/04/21 09:03:19;;;;;;;6.27;4.70;;;;;;;11.18;56.04;100138.41;1724149;80;21423;-74
2021/04/21 09:05:47;;;;;;;5.97;5.03;;;;;;;10.95;58.58;100138.45;1728389;81;21493;-72
2021/04/21 09:08:16;;;;;;;6.47;5.10;;;;;;;10.66;58.90;100132.86;1723763;81;21811;-72
2021/04/21 09:10:45;;;;;;;5.53;4.80;;;;;;;10.45;59.70;100142.20;1719751;81;21439;-72
2021/04/21 09:13:14;;;;;;;6.77;4.77;;;;;;;10.38;60.31;100143.00;1726660;81;21597;-71
2021/04/21 09:15:44;;;;;;;5.93;4.20;;;;;;;10.42;60.20;100143.27;1719032;80;21359;-72
2021/04/21 09:18:14;;;;;;;6.47;3.90;;;;;;;10.39;60.09;100143.27;1690304;83;21496;-71
2021/04/21 09:20:45;;;;;;;6.57;4.53;;;;;;;10.46;60.04;100149.17;1698320;80;21194;-70
2021/04/21 09:23:14;;;;;;;5.93;4.20;;;;;;;10.60;59.63;100147.30;1721516;81;22300;-69
2021/04/21 09:25:46;;;;;;;6.97;4.17;;;;;;;10.69;59.03;100138.46;1718229;81;21343;-72
2021/04/21 09:28:18;;;;;;;5.77;4.07;;;;;;;10.71;58.61;100139.01;1719502;81;21540;-71
2021/04/21 09:33:32;;;;;;;7.67;4.87;;;;;;;10.87;58.30;100138.47;1810026;77;22687;-68
2021/04/21 09:36:00;;;;;;;5.03;3.93;;;;;;;10.86;58.06;100142.73;1793078;78;21571;-69
2021/04/21 09:38:29;;;;;;;5.07;3.60;;;;;;;10.82;57.97;100137.12;1777115;78;21320;-67
2021/04/21 09:41:03;;;;;;;5.47;3.77;;;;;;;10.82;58.02;100137.66;1826682;77;21522;-67
2021/04/21 09:43:34;;;;;;;6.47;4.43;;;;;;;10.79;58.02;100144.34;1771944;79;21837;-68
2021/04/21 09:46:17;;;;;;;7.03;4.83;;;;;;;10.78;57.92;100143.54;1786761;78;21839;-67
2021/04/21 09:48:47;;;;;;;6.90;4.90;;;;;;;10.77;58.36;100155.30;1783737;78;21160;-68
2021/04/21 09:51:17;;;;;;;6.30;5.00;;;;;;;10.72;59.83;100155.83;1784920;78;21871;-68
2021/04/21 09:53:50;;;;;;;6.33;4.83;;;;;;;10.71;60.24;100152.91;1789839;78;21263;-68
2021/04/21 09:56:23;;;;;;;7.30;5.40;;;;;;;10.77;60.48;100139.81;1782078;78;21342;-69
2021/04/21 09:58:55;;;;;;;11.73;6.63;;;;;;;10.91;61.56;100142.73;1781010;78;21494;-69
2021/04/21 10:01:34;;;;;;;9.13;6.85;;;;;;;11.10;62.55;100149.67;1781440;78;21492;-71
2021/04/21 10:04:24;;;;;;;8.60;6.17;;;;;;;11.21;62.25;100151.23;1782848;78;21192;-68
2021/04/21 10:06:53;;;;;;;7.77;6.73;;;;;;;11.37;62.82;100144.78;1765045;78;21408;-68
2021/04/21 10:09:35;;;;;;;7.87;6.27;;;;;;;11.47;61.73;100143.95;1775984;79;21363;-67
2021/04/21 10:12:36;;;;;;;9.93;6.03;;;;;;;11.56;61.68;100147.67;1786809;78;21498;-68
2021/04/21 10:15:09;;;;;;;7.67;5.77;;;;;;;11.76;61.49;100146.78;1781089;78;21436;-70
2021/04/21 10:17:42;;;;;;;8.03;6.27;;;;;;;11.97;61.05;100144.83;1792532;79;21851;-67
2021/04/21 10:20:14;;;;;;;8.43;5.90;;;;;;;12.11;60.96;100147.17;1793427;78;21468;-71
2021/04/21 10:22:45;;;;;;;6.70;5.50;;;;;;;12.23;60.56;100141.46;1787036;78;21447;-69
2021/04/21 10:25:15;;;;;;;7.17;5.40;;;;;;;12.36;59.60;100143.52;1785490;78;21386;-72
2021/04/21 10:27:43;;;;;;;7.13;5.17;;;;;;;12.55;59.02;100145.53;1764776;78;21432;-69
2021/04/21 10:30:13;;;;;;;6.83;5.63;;;;;;;12.73;58.03;100140.81;1772314;78;21651;-68
2021/04/21 10:32:41;;;;;;;6.30;5.20;;;;;;;12.95;56.83;100136.88;1785746;78;21530;-70
2021/04/21 10:35:10;;;;;;;6.80;5.57;;;;;;;13.07;57.25;100130.61;1787903;78;22016;-68
2021/04/21 10:37:40;;;;;;;7.07;5.43;;;;;;;13.17;55.53;100128.36;1781698;78;21319;-72
2021/04/21 10:40:13;;;;;;;9.60;6.33;;;;;;;13.21;54.19;100128.84;1790779;78;21418;-70
2021/04/21 10:43:02;;;;;;;7.77;5.60;;;;;;;13.20;54.17;100131.82;1781804;78;21605;-69
2021/04/21 10:45:33;;;;;;;9.23;5.93;;;;;;;13.19;54.03;100135.02;1789036;78;21525;-67
2021/04/21 10:48:01;;;;;;;6.80;5.13;;;;;;;13.19;53.37;100129.66;1751961;80;21875;-67
2021/04/21 10:50:42;;;;;;;6.60;5.57;;;;;;;13.11;53.36;100129.74;1786476;78;21483;-67
2021/04/21 10:53:46;;;;;;;6.62;5.87;;;;;;;13.00;53.75;100131.48;1773433;78;21465;-66
2021/04/21 10:56:23;;;;;;;7.73;5.17;;;;;;;12.89;53.91;100145.50;1775692;78;21682;-68
2021/04/21 10:58:52;;;;;;;6.33;4.53;;;;;;;12.62;53.62;100148.69;1765768;78;21518;-67
2021/04/21 11:01:35;;;;;;;4.87;3.53;;;;;;;12.30;53.96;100162.58;1773013;78;21465;-67
2021/04/21 11:04:06;;;;;;;5.00;3.00;;;;;;;12.13;53.49;100155.71;1783086;78;21835;-68
2021/04/21 11:06:47;;;;;;;5.70;3.20;;;;;;;11.98;53.08;100146.45;1779416;78;21944;-68
2021/04/21 11:09:17;;;;;;;6.50;2.60;;;;;;;11.93;53.27;100147.25;1784472;78;22096;-67
2021/04/21 11:11:48;;;;;;;3.87;2.67;;;;;;;11.92;52.46;100145.66;1768729;78;21513;-66
2021/04/21 11:14:19;;;;;;;5.72;3.08;;;;;;;11.90;52.86;100149.69;1791950;78;21464;-68
2021/04/21 11:16:48;;;;;;;4.62;3.10;;;;;;;11.95;53.04;100145.66;1776027;78;21170;-68
2021/04/21 11:19:23;;;;;;;4.57;3.57;;;;;;;12.07;52.93;100147.44;1787085;78;21158;-68
2021/04/21 11:22:19;;;;;;;5.67;3.67;;;;;;;12.23;53.23;100153.52;1781961;78;21389;-68
2021/04/21 11:25:23;;;;;;;4.40;2.90;;;;;;;12.46;52.92;100142.64;1786039;78;22014;-67
2021/04/21 11:27:52;;;;;;;4.97;3.30;;;;;;;12.57;51.70;100138.83;1769791;79;22513;-66
2021/04/21 11:30:42;;;;;;;4.93;3.20;;;;;;;12.67;52.45;100143.30;1770602;78;21383;-67
2021/04/21 11:33:14;;;;;;;5.50;3.20;;;;;;;12.86;51.63;100130.78;1779807;78;21354;-69
2021/04/21 11:35:42;;;;;;;4.80;3.10;;;;;;;13.02;50.24;100147.52;1781578;78;21366;-68
2021/04/21 11:38:32;;;;;;;5.00;3.50;;;;;;;13.03;49.79;100150.48;1763133;78;21397;-68
2021/04/21 11:41:17;;;;;;;5.70;3.10;;;;;;;13.04;50.17;100153.96;1749689;80;21601;-65
2021/04/21 11:43:46;;;;;;;7.73;3.40;;;;;;;12.92;49.59;100157.00;1766934;78;21405;-67
2021/04/21 11:46:34;;;;;;;7.23;3.50;;;;;;;12.72;49.39;100151.28;1793038;78;21977;-69
2021/04/21 11:49:03;;;;;;;4.87;2.60;;;;;;;12.58;49.97;100149.00;1756642;80;22165;-69
2021/04/21 11:51:46;;;;;;;4.37;2.53;;;;;;;12.61;50.79;100145.77;1790523;78;21981;-70
2021/04/21 11:54:14;;;;;;;4.67;2.70;;;;;;;12.77;49.35;100145.89;1783165;78;21755;-70
2021/04/21 11:56:43;;;;;;;3.80;2.33;;;;;;;12.84;48.87;100141.00;1784614;78;21413;-71
2021/04/21 11:59:11;;;;;;;4.30;2.87;;;;;;;12.83;49.21;100132.71;1774876;78;21435;-69
2021/04/21 12:01:39;;;;;;;3.83;2.53;;;;;;;12.92;50.10;100136.90;1779756;78;21483;-72
2021/04/21 12:04:15;;;;;;;3.47;2.43;;;;;;;13.08;49.46;100132.20;1781955;78;21474;-77
2021/04/21 12:06:51;;;;;;;4.03;2.63;;;;;;;13.25;49.73;100125.87;1793920;78;21345;-74
2021/04/21 12:09:49;;;;;;;;;;;;;;;;;;;;;
2021/04/21 12:12:26;;;;;;;4.90;3.33;;;;;;;13.91;50.02;100122.91;1798735;77;22312;-72
2021/04/21 12:15:05;;;;;;;4.30;3.20;;;;;;;13.97;50.62;100119.63;1747457;79;21173;-69
2021/04/21 12:17:34;;;;;;;6.83;3.17;;;;;;;14.05;50.92;100123.02;1738003;81;22210;-70
2021/04/21 12:20:05;;;;;;;4.10;3.20;;;;;;;14.07;50.48;100118.13;1740933;81;21580;-70